sensor_id;sensor_type;location;lat;lon;timestamp;P1;durP1;ratioP1;P2;durP2;ratioP2
11384;SDS011;5747;56.748;13.882;2022-07-24T00:00:38;2.40;;;2.20;;
11384;SDS011;5747;56.748;13.882;2022-07-24T00:03:06;2.67;;;2.30;;
11384;SDS011;5747;56.748;13.882;2022-07-24T00:05:36;2.40;;;2.20;;
11384;SDS011;5747;56.748;13.882;2022-07-24T00:08:05;2.57;;;2.37;;
11384;SDS011;5747;56.748;13.882;2022-07-24T00:10:33;2.53;;;2.33;;
11384;SDS011;5747;56.748;13.882;2022-07-24T00:13:01;2.13;;;2.00;;
11384;SDS011;5747;56.748;13.882;2022-07-24T00:15:30;2.40;;;2.20;;
11384;SDS011;5747;56.748;13.882;2022-07-24T00:17:59;2.70;;;2.50;;
11384;SDS011;5747;56.748;13.882;2022-07-24T00:20:27;2.60;;;2.40;;
11384;SDS011;5747;56.748;13.882;2022-07-24T00:22:55;2.60;;;2.40;;
11384;SDS011;5747;56.748;13.882;2022-07-24T00:25:24;3.10;;;2.80;;
11384;SDS011;5747;56.748;13.882;2022-07-24T00:27:52;2.63;;;2.17;;
11384;SDS011;5747;56.748;13.882;2022-07-24T00:30:21;3.47;;;2.37;;
11384;SDS011;5747;56.748;13.882;2022-07-24T00:32:49;2.53;;;2.33;;
11384;SDS011;5747;56.748;13.882;2022-07-24T00:35:17;2.40;;;2.30;;
11384;SDS011;5747;56.748;13.882;2022-07-24T00:37:45;3.07;;;2.57;;
11384;SDS011;5747;56.748;13.882;2022-07-24T00:40:13;2.77;;;2.30;;
11384;SDS011;5747;56.748;13.882;2022-07-24T00:42:43;2.60;;;2.40;;
11384;SDS011;5747;56.748;13.882;2022-07-24T00:45:11;2.53;;;2.33;;
11384;SDS011;5747;56.748;13.882;2022-07-24T00:47:50;3.03;;;2.00;;
11384;SDS011;5747;56.748;13.882;2022-07-24T00:50:23;2.53;;;2.20;;
11384;SDS011;5747;56.748;13.882;2022-07-24T00:52:51;3.43;;;2.13;;
11384;SDS011;5747;56.748;13.882;2022-07-24T00:55:20;3.30;;;2.37;;
11384;SDS011;5747;56.748;13.882;2022-07-24T00:57:50;2.30;;;2.03;;
11384;SDS011;5747;56.748;13.882;2022-07-24T01:00:19;2.77;;;2.30;;
11384;SDS011;5747;56.748;13.882;2022-07-24T01:02:48;2.70;;;2.50;;
11384;SDS011;5747;56.748;13.882;2022-07-24T01:05:17;2.63;;;2.43;;
11384;SDS011;5747;56.748;13.882;2022-07-24T01:07:47;3.13;;;2.83;;
11384;SDS011;5747;56.748;13.882;2022-07-24T01:10:15;2.70;;;2.50;;
11384;SDS011;5747;56.748;13.882;2022-07-24T01:12:44;2.20;;;2.00;;
11384;SDS011;5747;56.748;13.882;2022-07-24T01:15:13;2.20;;;2.10;;
11384;SDS011;5747;56.748;13.882;2022-07-24T01:17:41;2.23;;;2.03;;
11384;SDS011;5747;56.748;13.882;2022-07-24T01:20:10;2.37;;;2.17;;
11384;SDS011;5747;56.748;13.882;2022-07-24T01:22:40;2.60;;;2.40;;
11384;SDS011;5747;56.748;13.882;2022-07-24T01:25:08;2.47;;;2.27;;
11384;SDS011;5747;56.748;13.882;2022-07-24T01:27:37;3.13;;;2.30;;
11384;SDS011;5747;56.748;13.882;2022-07-24T01:30:06;2.40;;;2.30;;
11384;SDS011;5747;56.748;13.882;2022-07-24T01:32:35;2.53;;;2.33;;
11384;SDS011;5747;56.748;13.882;2022-07-24T01:35:03;2.60;;;2.40;;
11384;SDS011;5747;56.748;13.882;2022-07-24T01:37:32;4.37;;;2.50;;
11384;SDS011;5747;56.748;13.882;2022-07-24T01:40:02;3.00;;;2.20;;
11384;SDS011;5747;56.748;13.882;2022-07-24T01:42:31;2.70;;;2.50;;
11384;SDS011;5747;56.748;13.882;2022-07-24T01:44:59;2.30;;;2.10;;
11384;SDS011;5747;56.748;13.882;2022-07-24T01:47:27;2.50;;;2.30;;
11384;SDS011;5747;56.748;13.882;2022-07-24T01:49:55;2.33;;;2.13;;
11384;SDS011;5747;56.748;13.882;2022-07-24T01:52:24;2.80;;;2.50;;
11384;SDS011;5747;56.748;13.882;2022-07-24T01:54:52;2.50;;;2.30;;
11384;SDS011;5747;56.748;13.882;2022-07-24T01:57:22;2.77;;;2.57;;
11384;SDS011;5747;56.748;13.882;2022-07-24T01:59:55;2.60;;;2.40;;
11384;SDS011;5747;56.748;13.882;2022-07-24T02:02:24;3.17;;;2.87;;
11384;SDS011;5747;56.748;13.882;2022-07-24T02:04:52;2.33;;;2.20;;
11384;SDS011;5747;56.748;13.882;2022-07-24T02:07:21;2.50;;;2.30;;
11384;SDS011;5747;56.748;13.882;2022-07-24T02:09:49;2.50;;;2.30;;
11384;SDS011;5747;56.748;13.882;2022-07-24T02:12:17;3.27;;;2.50;;
11384;SDS011;5747;56.748;13.882;2022-07-24T02:14:47;2.47;;;2.27;;
11384;SDS011;5747;56.748;13.882;2022-07-24T02:17:15;3.03;;;2.33;;
11384;SDS011;5747;56.748;13.882;2022-07-24T02:19:43;2.60;;;2.40;;
11384;SDS011;5747;56.748;13.882;2022-07-24T02:22:11;2.53;;;2.33;;
11384;SDS011;5747;56.748;13.882;2022-07-24T02:24:39;2.33;;;2.13;;
11384;SDS011;5747;56.748;13.882;2022-07-24T02:27:07;2.30;;;2.13;;
11384;SDS011;5747;56.748;13.882;2022-07-24T02:29:35;2.50;;;2.30;;
11384;SDS011;5747;56.748;13.882;2022-07-24T02:32:05;2.50;;;2.30;;
11384;SDS011;5747;56.748;13.882;2022-07-24T02:34:34;2.47;;;2.27;;
11384;SDS011;5747;56.748;13.882;2022-07-24T02:37:03;3.03;;;2.70;;
11384;SDS011;5747;56.748;13.882;2022-07-24T02:39:31;3.07;;;2.77;;
11384;SDS011;5747;56.748;13.882;2022-07-24T02:41:59;3.80;;;2.80;;
11384;SDS011;5747;56.748;13.882;2022-07-24T02:44:27;3.17;;;2.90;;
11384;SDS011;5747;56.748;13.882;2022-07-24T02:46:55;3.07;;;2.87;;
11384;SDS011;5747;56.748;13.882;2022-07-24T02:49:25;3.47;;;2.90;;
11384;SDS011;5747;56.748;13.882;2022-07-24T02:51:53;3.27;;;3.00;;
11384;SDS011;5747;56.748;13.882;2022-07-24T02:54:21;3.77;;;2.70;;
11384;SDS011;5747;56.748;13.882;2022-07-24T02:56:49;2.80;;;2.50;;
11384;SDS011;5747;56.748;13.882;2022-07-24T02:59:17;2.40;;;2.20;;
11384;SDS011;5747;56.748;13.882;2022-07-24T03:01:45;2.77;;;2.20;;
11384;SDS011;5747;56.748;13.882;2022-07-24T03:04:14;2.37;;;2.27;;
11384;SDS011;5747;56.748;13.882;2022-07-24T03:06:43;2.77;;;2.40;;
11384;SDS011;5747;56.748;13.882;2022-07-24T03:09:12;2.57;;;2.30;;
11384;SDS011;5747;56.748;13.882;2022-07-24T03:11:40;2.90;;;2.30;;
11384;SDS011;5747;56.748;13.882;2022-07-24T03:14:08;2.43;;;2.30;;
11384;SDS011;5747;56.748;13.882;2022-07-24T03:16:36;3.43;;;2.50;;
11384;SDS011;5747;56.748;13.882;2022-07-24T03:19:04;2.60;;;2.40;;
11384;SDS011;5747;56.748;13.882;2022-07-24T03:21:33;2.70;;;2.50;;
11384;SDS011;5747;56.748;13.882;2022-07-24T03:24:18;2.63;;;2.43;;
11384;SDS011;5747;56.748;13.882;2022-07-24T03:26:46;3.37;;;2.70;;
11384;SDS011;5747;56.748;13.882;2022-07-24T03:29:14;2.80;;;2.60;;
11384;SDS011;5747;56.748;13.882;2022-07-24T03:31:43;3.10;;;2.90;;
11384;SDS011;5747;56.748;13.882;2022-07-24T03:34:11;2.97;;;2.30;;
11384;SDS011;5747;56.748;13.882;2022-07-24T03:36:39;2.60;;;2.40;;
11384;SDS011;5747;56.748;13.882;2022-07-24T03:39:07;2.60;;;2.40;;
11384;SDS011;5747;56.748;13.882;2022-07-24T03:41:37;4.13;;;2.30;;
11384;SDS011;5747;56.748;13.882;2022-07-24T03:44:05;3.33;;;2.40;;
11384;SDS011;5747;56.748;13.882;2022-07-24T03:46:33;2.80;;;2.53;;
11384;SDS011;5747;56.748;13.882;2022-07-24T03:49:01;2.00;;;1.90;;
11384;SDS011;5747;56.748;13.882;2022-07-24T03:51:30;2.33;;;2.13;;
11384;SDS011;5747;56.748;13.882;2022-07-24T03:54:01;2.50;;;2.30;;
11384;SDS011;5747;56.748;13.882;2022-07-24T03:56:29;2.63;;;2.20;;
11384;SDS011;5747;56.748;13.882;2022-07-24T03:58:59;2.50;;;2.30;;
11384;SDS011;5747;56.748;13.882;2022-07-24T04:01:27;2.50;;;2.30;;
11384;SDS011;5747;56.748;13.882;2022-07-24T04:03:56;2.70;;;2.20;;
11384;SDS011;5747;56.748;13.882;2022-07-24T04:06:24;4.30;;;2.20;;
11384;SDS011;5747;56.748;13.882;2022-07-24T04:08:52;2.80;;;2.23;;
11384;SDS011;5747;56.748;13.882;2022-07-24T04:11:20;2.90;;;2.20;;
11384;SDS011;5747;56.748;13.882;2022-07-24T04:13:49;2.43;;;2.23;;
11384;SDS011;5747;56.748;13.882;2022-07-24T04:16:18;2.50;;;2.30;;
11384;SDS011;5747;56.748;13.882;2022-07-24T04:18:46;2.30;;;2.03;;
11384;SDS011;5747;56.748;13.882;2022-07-24T04:21:15;4.13;;;2.30;;
11384;SDS011;5747;56.748;13.882;2022-07-24T04:23:43;3.30;;;2.43;;
11384;SDS011;5747;56.748;13.882;2022-07-24T04:26:11;2.70;;;2.30;;
11384;SDS011;5747;56.748;13.882;2022-07-24T04:28:39;2.27;;;2.07;;
11384;SDS011;5747;56.748;13.882;2022-07-24T04:31:08;3.07;;;2.50;;
11384;SDS011;5747;56.748;13.882;2022-07-24T04:33:38;2.47;;;2.27;;
11384;SDS011;5747;56.748;13.882;2022-07-24T04:36:06;2.80;;;2.60;;
11384;SDS011;5747;56.748;13.882;2022-07-24T04:38:38;3.43;;;2.40;;
11384;SDS011;5747;56.748;13.882;2022-07-24T04:41:06;3.23;;;2.67;;
11384;SDS011;5747;56.748;13.882;2022-07-24T04:43:34;2.93;;;2.70;;
11384;SDS011;5747;56.748;13.882;2022-07-24T04:46:02;2.83;;;2.47;;
11384;SDS011;5747;56.748;13.882;2022-07-24T04:48:31;3.20;;;2.90;;
11384;SDS011;5747;56.748;13.882;2022-07-24T04:51:00;3.00;;;2.80;;
11384;SDS011;5747;56.748;13.882;2022-07-24T04:53:29;3.67;;;2.70;;
11384;SDS011;5747;56.748;13.882;2022-07-24T04:55:57;4.13;;;2.67;;
11384;SDS011;5747;56.748;13.882;2022-07-24T04:58:25;5.13;;;2.73;;
11384;SDS011;5747;56.748;13.882;2022-07-24T05:00:54;2.80;;;2.57;;
11384;SDS011;5747;56.748;13.882;2022-07-24T05:03:22;7.10;;;3.73;;
11384;SDS011;5747;56.748;13.882;2022-07-24T05:05:50;5.03;;;2.67;;
11384;SDS011;5747;56.748;13.882;2022-07-24T05:08:20;4.63;;;2.90;;
11384;SDS011;5747;56.748;13.882;2022-07-24T05:10:48;3.67;;;2.80;;
11384;SDS011;5747;56.748;13.882;2022-07-24T05:13:17;3.93;;;2.47;;
11384;SDS011;5747;56.748;13.882;2022-07-24T05:15:45;4.33;;;2.50;;
11384;SDS011;5747;56.748;13.882;2022-07-24T05:18:13;3.60;;;2.77;;
11384;SDS011;5747;56.748;13.882;2022-07-24T05:20:41;5.27;;;2.50;;
11384;SDS011;5747;56.748;13.882;2022-07-24T05:23:09;3.30;;;2.40;;
11384;SDS011;5747;56.748;13.882;2022-07-24T05:25:39;5.03;;;2.30;;
11384;SDS011;5747;56.748;13.882;2022-07-24T05:28:14;5.37;;;2.37;;
11384;SDS011;5747;56.748;13.882;2022-07-24T05:30:42;3.80;;;2.30;;
11384;SDS011;5747;56.748;13.882;2022-07-24T05:33:11;3.73;;;2.53;;
11384;SDS011;5747;56.748;13.882;2022-07-24T05:35:39;3.50;;;2.17;;
11384;SDS011;5747;56.748;13.882;2022-07-24T05:38:07;6.13;;;2.17;;
11384;SDS011;5747;56.748;13.882;2022-07-24T05:40:35;4.53;;;2.30;;
11384;SDS011;5747;56.748;13.882;2022-07-24T05:43:05;3.70;;;2.00;;
11384;SDS011;5747;56.748;13.882;2022-07-24T05:45:34;3.97;;;2.50;;
11384;SDS011;5747;56.748;13.882;2022-07-24T05:48:02;4.70;;;2.10;;
11384;SDS011;5747;56.748;13.882;2022-07-24T05:50:31;2.67;;;2.10;;
11384;SDS011;5747;56.748;13.882;2022-07-24T05:52:59;3.10;;;1.80;;
11384;SDS011;5747;56.748;13.882;2022-07-24T05:55:27;4.20;;;1.80;;
11384;SDS011;5747;56.748;13.882;2022-07-24T05:57:55;2.30;;;1.60;;
11384;SDS011;5747;56.748;13.882;2022-07-24T06:00:25;5.07;;;1.63;;
11384;SDS011;5747;56.748;13.882;2022-07-24T06:02:53;5.77;;;2.00;;
11384;SDS011;5747;56.748;13.882;2022-07-24T06:05:21;2.70;;;1.70;;
11384;SDS011;5747;56.748;13.882;2022-07-24T06:07:49;1.87;;;1.77;;
11384;SDS011;5747;56.748;13.882;2022-07-24T06:10:17;2.87;;;1.90;;
11384;SDS011;5747;56.748;13.882;2022-07-24T06:12:51;2.70;;;1.80;;
11384;SDS011;5747;56.748;13.882;2022-07-24T06:15:19;2.67;;;2.00;;
11384;SDS011;5747;56.748;13.882;2022-07-24T06:17:49;2.43;;;1.90;;
11384;SDS011;5747;56.748;13.882;2022-07-24T06:20:17;4.60;;;1.93;;
11384;SDS011;5747;56.748;13.882;2022-07-24T06:22:45;4.70;;;2.30;;
11384;SDS011;5747;56.748;13.882;2022-07-24T06:25:15;4.00;;;2.43;;
11384;SDS011;5747;56.748;13.882;2022-07-24T06:27:43;2.33;;;2.13;;
11384;SDS011;5747;56.748;13.882;2022-07-24T06:30:13;6.27;;;2.60;;
11384;SDS011;5747;56.748;13.882;2022-07-24T06:32:42;3.57;;;2.67;;
11384;SDS011;5747;56.748;13.882;2022-07-24T06:35:13;4.07;;;2.60;;
11384;SDS011;5747;56.748;13.882;2022-07-24T06:37:42;2.33;;;2.13;;
11384;SDS011;5747;56.748;13.882;2022-07-24T06:40:13;2.63;;;2.43;;
11384;SDS011;5747;56.748;13.882;2022-07-24T06:42:41;3.63;;;2.23;;
11384;SDS011;5747;56.748;13.882;2022-07-24T06:45:10;3.17;;;2.17;;
11384;SDS011;5747;56.748;13.882;2022-07-24T06:47:39;3.13;;;2.13;;
11384;SDS011;5747;56.748;13.882;2022-07-24T06:50:08;2.87;;;1.97;;
11384;SDS011;5747;56.748;13.882;2022-07-24T06:52:38;4.30;;;2.33;;
11384;SDS011;5747;56.748;13.882;2022-07-24T06:55:07;4.70;;;2.83;;
11384;SDS011;5747;56.748;13.882;2022-07-24T06:57:36;5.30;;;3.10;;
11384;SDS011;5747;56.748;13.882;2022-07-24T07:00:06;4.17;;;3.10;;
11384;SDS011;5747;56.748;13.882;2022-07-24T07:02:37;2.93;;;2.73;;
11384;SDS011;5747;56.748;13.882;2022-07-24T07:05:06;2.87;;;2.60;;
11384;SDS011;5747;56.748;13.882;2022-07-24T07:07:36;4.33;;;3.10;;
11384;SDS011;5747;56.748;13.882;2022-07-24T07:10:06;3.57;;;3.23;;
11384;SDS011;5747;56.748;13.882;2022-07-24T07:12:35;3.50;;;2.70;;
11384;SDS011;5747;56.748;13.882;2022-07-24T07:15:07;4.07;;;3.67;;
11384;SDS011;5747;56.748;13.882;2022-07-24T07:17:36;4.03;;;3.57;;
11384;SDS011;5747;56.748;13.882;2022-07-24T07:20:06;3.60;;;3.30;;
11384;SDS011;5747;56.748;13.882;2022-07-24T07:22:34;4.53;;;4.13;;
11384;SDS011;5747;56.748;13.882;2022-07-24T07:25:03;5.13;;;4.13;;
11384;SDS011;5747;56.748;13.882;2022-07-24T07:27:34;4.00;;;3.33;;
11384;SDS011;5747;56.748;13.882;2022-07-24T07:30:03;3.90;;;3.43;;
11384;SDS011;5747;56.748;13.882;2022-07-24T07:32:32;3.70;;;3.40;;
11384;SDS011;5747;56.748;13.882;2022-07-24T07:35:00;3.47;;;3.17;;
11384;SDS011;5747;56.748;13.882;2022-07-24T07:37:30;5.07;;;3.10;;
11384;SDS011;5747;56.748;13.882;2022-07-24T07:39:58;2.80;;;2.50;;
11384;SDS011;5747;56.748;13.882;2022-07-24T07:42:27;5.00;;;2.97;;
11384;SDS011;5747;56.748;13.882;2022-07-24T07:44:55;4.67;;;2.73;;
11384;SDS011;5747;56.748;13.882;2022-07-24T07:47:24;2.53;;;2.30;;
11384;SDS011;5747;56.748;13.882;2022-07-24T07:49:52;3.63;;;2.20;;
11384;SDS011;5747;56.748;13.882;2022-07-24T07:52:20;3.37;;;2.60;;
11384;SDS011;5747;56.748;13.882;2022-07-24T07:54:48;2.67;;;2.00;;
11384;SDS011;5747;56.748;13.882;2022-07-24T07:57:17;2.77;;;2.07;;
11384;SDS011;5747;56.748;13.882;2022-07-24T07:59:47;3.23;;;1.83;;
11384;SDS011;5747;56.748;13.882;2022-07-24T08:02:15;3.50;;;1.80;;
11384;SDS011;5747;56.748;13.882;2022-07-24T08:04:43;2.10;;;1.90;;
11384;SDS011;5747;56.748;13.882;2022-07-24T08:07:11;1.87;;;1.70;;
11384;SDS011;5747;56.748;13.882;2022-07-24T08:09:39;2.63;;;1.97;;
11384;SDS011;5747;56.748;13.882;2022-07-24T08:12:10;1.83;;;1.73;;
11384;SDS011;5747;56.748;13.882;2022-07-24T08:14:41;2.00;;;1.80;;
11384;SDS011;5747;56.748;13.882;2022-07-24T08:17:11;2.83;;;2.17;;
11384;SDS011;5747;56.748;13.882;2022-07-24T08:19:40;3.50;;;2.20;;
11384;SDS011;5747;56.748;13.882;2022-07-24T08:22:08;3.40;;;1.90;;
11384;SDS011;5747;56.748;13.882;2022-07-24T08:24:36;2.63;;;1.87;;
11384;SDS011;5747;56.748;13.882;2022-07-24T08:27:04;3.17;;;1.97;;
11384;SDS011;5747;56.748;13.882;2022-07-24T08:29:33;2.30;;;2.10;;
11384;SDS011;5747;56.748;13.882;2022-07-24T08:32:01;2.00;;;1.90;;
11384;SDS011;5747;56.748;13.882;2022-07-24T08:34:30;3.43;;;1.80;;
11384;SDS011;5747;56.748;13.882;2022-07-24T08:36:58;2.77;;;2.00;;
11384;SDS011;5747;56.748;13.882;2022-07-24T08:39:27;3.87;;;1.77;;
11384;SDS011;5747;56.748;13.882;2022-07-24T08:41:55;2.17;;;1.60;;
11384;SDS011;5747;56.748;13.882;2022-07-24T08:44:23;2.73;;;1.47;;
11384;SDS011;5747;56.748;13.882;2022-07-24T08:46:52;3.47;;;1.60;;
11384;SDS011;5747;56.748;13.882;2022-07-24T08:49:23;2.17;;;1.60;;
11384;SDS011;5747;56.748;13.882;2022-07-24T08:51:55;2.07;;;1.60;;
11384;SDS011;5747;56.748;13.882;2022-07-24T08:54:26;5.40;;;2.03;;
11384;SDS011;5747;56.748;13.882;2022-07-24T08:56:55;2.67;;;1.67;;
11384;SDS011;5747;56.748;13.882;2022-07-24T08:59:23;2.77;;;1.70;;
11384;SDS011;5747;56.748;13.882;2022-07-24T09:01:52;1.57;;;1.40;;
11384;SDS011;5747;56.748;13.882;2022-07-24T09:04:33;2.87;;;1.73;;
11384;SDS011;5747;56.748;13.882;2022-07-24T09:07:04;1.60;;;1.50;;
11384;SDS011;5747;56.748;13.882;2022-07-24T09:09:34;2.03;;;1.67;;
11384;SDS011;5747;56.748;13.882;2022-07-24T09:12:04;3.93;;;2.03;;
11384;SDS011;5747;56.748;13.882;2022-07-24T09:14:40;2.33;;;1.90;;
11384;SDS011;5747;56.748;13.882;2022-07-24T09:17:09;1.70;;;1.60;;
11384;SDS011;5747;56.748;13.882;2022-07-24T09:19:47;2.63;;;1.63;;
11384;SDS011;5747;56.748;13.882;2022-07-24T09:22:24;2.07;;;1.63;;
11384;SDS011;5747;56.748;13.882;2022-07-24T09:25:04;2.37;;;1.80;;
11384;SDS011;5747;56.748;13.882;2022-07-24T09:27:34;3.93;;;1.80;;
11384;SDS011;5747;56.748;13.882;2022-07-24T09:30:03;2.73;;;1.97;;
11384;SDS011;5747;56.748;13.882;2022-07-24T09:32:38;2.07;;;1.87;;
11384;SDS011;5747;56.748;13.882;2022-07-24T09:35:07;4.03;;;1.80;;
11384;SDS011;5747;56.748;13.882;2022-07-24T09:37:38;3.60;;;2.00;;
11384;SDS011;5747;56.748;13.882;2022-07-24T09:40:07;2.80;;;1.80;;
11384;SDS011;5747;56.748;13.882;2022-07-24T09:42:36;2.90;;;2.20;;
11384;SDS011;5747;56.748;13.882;2022-07-24T09:45:09;3.17;;;1.90;;
11384;SDS011;5747;56.748;13.882;2022-07-24T09:47:38;2.90;;;2.07;;
11384;SDS011;5747;56.748;13.882;2022-07-24T09:50:14;2.50;;;2.00;;
11384;SDS011;5747;56.748;13.882;2022-07-24T09:52:45;2.97;;;2.00;;
11384;SDS011;5747;56.748;13.882;2022-07-24T09:55:23;2.70;;;2.10;;
11384;SDS011;5747;56.748;13.882;2022-07-24T09:57:52;5.20;;;2.50;;
11384;SDS011;5747;56.748;13.882;2022-07-24T10:00:20;2.27;;;2.03;;
11384;SDS011;5747;56.748;13.882;2022-07-24T10:02:51;3.43;;;2.20;;
11384;SDS011;5747;56.748;13.882;2022-07-24T10:05:22;2.63;;;2.10;;
11384;SDS011;5747;56.748;13.882;2022-07-24T10:07:53;4.13;;;2.20;;
11384;SDS011;5747;56.748;13.882;2022-07-24T10:10:26;3.20;;;1.90;;
11384;SDS011;5747;56.748;13.882;2022-07-24T10:12:56;2.43;;;1.90;;
11384;SDS011;5747;56.748;13.882;2022-07-24T10:15:24;2.20;;;1.93;;
11384;SDS011;5747;56.748;13.882;2022-07-24T10:18:05;4.00;;;2.10;;
11384;SDS011;5747;56.748;13.882;2022-07-24T10:20:42;4.03;;;2.00;;
11384;SDS011;5747;56.748;13.882;2022-07-24T10:23:24;2.70;;;1.87;;
11384;SDS011;5747;56.748;13.882;2022-07-24T10:25:55;2.37;;;1.90;;
11384;SDS011;5747;56.748;13.882;2022-07-24T10:28:36;2.47;;;1.67;;
11384;SDS011;5747;56.748;13.882;2022-07-24T10:31:07;2.20;;;2.00;;
11384;SDS011;5747;56.748;13.882;2022-07-24T10:33:37;1.87;;;1.70;;
11384;SDS011;5747;56.748;13.882;2022-07-24T10:36:08;2.17;;;1.70;;
11384;SDS011;5747;56.748;13.882;2022-07-24T10:38:48;3.20;;;2.20;;
11384;SDS011;5747;56.748;13.882;2022-07-24T10:41:23;2.97;;;1.63;;
11384;SDS011;5747;56.748;13.882;2022-07-24T10:44:12;1.70;;;1.60;;
11384;SDS011;5747;56.748;13.882;2022-07-24T10:49:52;2.03;;;1.70;;
11384;SDS011;5747;56.748;13.882;2022-07-24T10:52:25;2.07;;;1.80;;
11384;SDS011;5747;56.748;13.882;2022-07-24T10:58:03;3.67;;;1.97;;
11384;SDS011;5747;56.748;13.882;2022-07-24T11:00:40;2.67;;;1.83;;
11384;SDS011;5747;56.748;13.882;2022-07-24T11:03:17;1.93;;;1.70;;
11384;SDS011;5747;56.748;13.882;2022-07-24T11:06:03;2.63;;;2.00;;
11384;SDS011;5747;56.748;13.882;2022-07-24T11:08:32;4.57;;;2.00;;
11384;SDS011;5747;56.748;13.882;2022-07-24T11:11:07;2.37;;;1.80;;
11384;SDS011;5747;56.748;13.882;2022-07-24T11:13:41;2.07;;;1.80;;
11384;SDS011;5747;56.748;13.882;2022-07-24T11:16:22;2.87;;;1.70;;
11384;SDS011;5747;56.748;13.882;2022-07-24T11:27:43;2.03;;;1.70;;
11384;SDS011;5747;56.748;13.882;2022-07-24T11:30:24;2.00;;;1.77;;
11384;SDS011;5747;56.748;13.882;2022-07-24T11:32:53;2.07;;;1.73;;
11384;SDS011;5747;56.748;13.882;2022-07-24T11:35:28;2.93;;;1.80;;
11384;SDS011;5747;56.748;13.882;2022-07-24T11:37:59;3.23;;;1.90;;
11384;SDS011;5747;56.748;13.882;2022-07-24T11:40:29;2.43;;;1.80;;
11384;SDS011;5747;56.748;13.882;2022-07-24T11:42:59;2.23;;;1.73;;
11384;SDS011;5747;56.748;13.882;2022-07-24T11:45:35;2.37;;;1.77;;
11384;SDS011;5747;56.748;13.882;2022-07-24T11:48:04;2.20;;;2.00;;
11384;SDS011;5747;56.748;13.882;2022-07-24T11:50:33;3.37;;;1.80;;
11384;SDS011;5747;56.748;13.882;2022-07-24T11:53:04;2.27;;;1.83;;
11384;SDS011;5747;56.748;13.882;2022-07-24T11:55:33;3.07;;;2.10;;
11384;SDS011;5747;56.748;13.882;2022-07-24T11:58:03;2.87;;;2.20;;
11384;SDS011;5747;56.748;13.882;2022-07-24T12:00:51;1.87;;;1.77;;
11384;SDS011;5747;56.748;13.882;2022-07-24T12:03:19;4.27;;;2.00;;
11384;SDS011;5747;56.748;13.882;2022-07-24T12:05:47;2.17;;;1.97;;
11384;SDS011;5747;56.748;13.882;2022-07-24T12:08:17;2.40;;;2.00;;
11384;SDS011;5747;56.748;13.882;2022-07-24T12:10:48;4.10;;;1.90;;
11384;SDS011;5747;56.748;13.882;2022-07-24T12:13:23;3.17;;;1.80;;
11384;SDS011;5747;56.748;13.882;2022-07-24T12:15:52;2.20;;;1.93;;
11384;SDS011;5747;56.748;13.882;2022-07-24T12:18:20;3.07;;;1.90;;
11384;SDS011;5747;56.748;13.882;2022-07-24T12:20:58;5.23;;;2.10;;
11384;SDS011;5747;56.748;13.882;2022-07-24T12:23:27;2.60;;;2.17;;
11384;SDS011;5747;56.748;13.882;2022-07-24T12:25:56;3.80;;;1.73;;
11384;SDS011;5747;56.748;13.882;2022-07-24T12:28:26;2.00;;;1.90;;
11384;SDS011;5747;56.748;13.882;2022-07-24T12:30:54;2.80;;;2.17;;
11384;SDS011;5747;56.748;13.882;2022-07-24T12:33:23;2.60;;;1.80;;
11384;SDS011;5747;56.748;13.882;2022-07-24T12:35:54;3.30;;;1.80;;
11384;SDS011;5747;56.748;13.882;2022-07-24T12:38:26;2.10;;;1.90;;
11384;SDS011;5747;56.748;13.882;2022-07-24T12:41:02;2.00;;;1.80;;
11384;SDS011;5747;56.748;13.882;2022-07-24T12:43:39;2.20;;;1.77;;
11384;SDS011;5747;56.748;13.882;2022-07-24T12:46:14;2.70;;;1.90;;
11384;SDS011;5747;56.748;13.882;2022-07-24T12:48:55;3.50;;;2.00;;
11384;SDS011;5747;56.748;13.882;2022-07-24T12:51:24;2.73;;;2.10;;
11384;SDS011;5747;56.748;13.882;2022-07-24T12:53:53;3.40;;;2.33;;
11384;SDS011;5747;56.748;13.882;2022-07-24T12:56:22;2.73;;;1.80;;
11384;SDS011;5747;56.748;13.882;2022-07-24T12:58:53;3.67;;;2.03;;
11384;SDS011;5747;56.748;13.882;2022-07-24T13:01:26;2.47;;;1.90;;
11384;SDS011;5747;56.748;13.882;2022-07-24T13:03:57;3.47;;;1.90;;
11384;SDS011;5747;56.748;13.882;2022-07-24T13:06:33;2.37;;;2.00;;
11384;SDS011;5747;56.748;13.882;2022-07-24T13:09:03;3.07;;;1.90;;
11384;SDS011;5747;56.748;13.882;2022-07-24T13:11:32;2.20;;;2.00;;
11384;SDS011;5747;56.748;13.882;2022-07-24T13:14:02;2.30;;;2.00;;
11384;SDS011;5747;56.748;13.882;2022-07-24T13:16:34;2.63;;;1.90;;
11384;SDS011;5747;56.748;13.882;2022-07-24T13:19:04;1.93;;;1.70;;
11384;SDS011;5747;56.748;13.882;2022-07-24T13:21:33;2.37;;;1.83;;
11384;SDS011;5747;56.748;13.882;2022-07-24T13:24:02;4.70;;;2.03;;
11384;SDS011;5747;56.748;13.882;2022-07-24T13:26:31;3.00;;;1.77;;
11384;SDS011;5747;56.748;13.882;2022-07-24T13:29:00;2.50;;;2.00;;
11384;SDS011;5747;56.748;13.882;2022-07-24T13:31:30;1.60;;;1.50;;
11384;SDS011;5747;56.748;13.882;2022-07-24T13:33:58;1.70;;;1.60;;
11384;SDS011;5747;56.748;13.882;2022-07-24T13:36:27;3.80;;;1.60;;
11384;SDS011;5747;56.748;13.882;2022-07-24T13:38:55;1.87;;;1.77;;
11384;SDS011;5747;56.748;13.882;2022-07-24T13:41:24;2.27;;;1.50;;
11384;SDS011;5747;56.748;13.882;2022-07-24T13:43:53;2.10;;;1.60;;
11384;SDS011;5747;56.748;13.882;2022-07-24T13:46:21;2.33;;;1.67;;
11384;SDS011;5747;56.748;13.882;2022-07-24T13:48:51;2.20;;;2.00;;
11384;SDS011;5747;56.748;13.882;2022-07-24T13:51:23;2.30;;;1.70;;
11384;SDS011;5747;56.748;13.882;2022-07-24T13:53:51;1.80;;;1.50;;
11384;SDS011;5747;56.748;13.882;2022-07-24T13:56:20;1.77;;;1.50;;
11384;SDS011;5747;56.748;13.882;2022-07-24T13:58:49;1.70;;;1.60;;
11384;SDS011;5747;56.748;13.882;2022-07-24T14:01:17;2.03;;;1.40;;
11384;SDS011;5747;56.748;13.882;2022-07-24T14:04:01;3.17;;;1.67;;
11384;SDS011;5747;56.748;13.882;2022-07-24T14:06:50;1.60;;;1.50;;
11384;SDS011;5747;56.748;13.882;2022-07-24T14:09:19;4.83;;;1.50;;
11384;SDS011;5747;56.748;13.882;2022-07-24T14:11:47;1.57;;;1.47;;
11384;SDS011;5747;56.748;13.882;2022-07-24T14:14:15;1.70;;;1.33;;
11384;SDS011;5747;56.748;13.882;2022-07-24T14:16:43;2.50;;;1.43;;
11384;SDS011;5747;56.748;13.882;2022-07-24T14:19:14;1.67;;;1.47;;
11384;SDS011;5747;56.748;13.882;2022-07-24T14:21:42;1.70;;;1.60;;
11384;SDS011;5747;56.748;13.882;2022-07-24T14:24:13;1.53;;;1.40;;
11384;SDS011;5747;56.748;13.882;2022-07-24T14:26:43;1.37;;;1.27;;
11384;SDS011;5747;56.748;13.882;2022-07-24T14:29:12;1.83;;;1.40;;
11384;SDS011;5747;56.748;13.882;2022-07-24T14:31:41;1.60;;;1.37;;
11384;SDS011;5747;56.748;13.882;2022-07-24T14:34:09;2.17;;;1.40;;
11384;SDS011;5747;56.748;13.882;2022-07-24T14:36:38;1.60;;;1.30;;
11384;SDS011;5747;56.748;13.882;2022-07-24T14:39:07;1.70;;;1.47;;
11384;SDS011;5747;56.748;13.882;2022-07-24T14:41:35;1.33;;;1.23;;
11384;SDS011;5747;56.748;13.882;2022-07-24T14:44:04;2.63;;;1.47;;
11384;SDS011;5747;56.748;13.882;2022-07-24T14:46:36;1.40;;;1.30;;
11384;SDS011;5747;56.748;13.882;2022-07-24T14:49:05;2.70;;;1.40;;
11384;SDS011;5747;56.748;13.882;2022-07-24T14:51:35;2.13;;;1.40;;
11384;SDS011;5747;56.748;13.882;2022-07-24T14:54:05;1.97;;;1.80;;
11384;SDS011;5747;56.748;13.882;2022-07-24T14:56:34;1.67;;;1.30;;
11384;SDS011;5747;56.748;13.882;2022-07-24T14:59:02;1.53;;;1.43;;
11384;SDS011;5747;56.748;13.882;2022-07-24T15:01:31;4.47;;;1.60;;
11384;SDS011;5747;56.748;13.882;2022-07-24T15:04:04;3.73;;;1.77;;
11384;SDS011;5747;56.748;13.882;2022-07-24T15:06:34;2.97;;;1.63;;
11384;SDS011;5747;56.748;13.882;2022-07-24T15:09:03;2.00;;;1.37;;
11384;SDS011;5747;56.748;13.882;2022-07-24T15:11:33;2.13;;;1.70;;
11384;SDS011;5747;56.748;13.882;2022-07-24T15:14:02;2.70;;;1.73;;
11384;SDS011;5747;56.748;13.882;2022-07-24T15:16:31;2.00;;;1.53;;
11384;SDS011;5747;56.748;13.882;2022-07-24T15:18:59;1.60;;;1.50;;